Time;durP1;ratioP1;P1;durP2;ratioP2;P2;SDS_P1;SDS_P2;PMS_P1;PMS_P2;Temp;Humidity;BMP_temperature;BMP_pressure;BME280_temperature;BME280_humidity;BME280_pressure;Samples;Min_cycle;Max_cycle;Signal;HPM_P1;HPM_P2
2023/03/17 00:01:08;;;;;;;6.60;4.05;;;6.20;79.90;;;;;;5076145;28;20067;-65
2023/03/17 00:03:38;;;;;;;6.38;3.72;;;6.20;80.30;;;;;;5076119;28;20025;-65
2023/03/17 00:06:04;;;;;;;6.55;3.95;;;6.10;79.90;;;;;;5076398;28;20027;-65
2023/03/17 00:08:37;;;;;;;7.00;4.13;;;6.00;81.40;;;;;;5076188;28;20040;-65
2023/03/17 00:11:03;;;;;;;7.78;4.47;;;6.00;82.20;;;;;;5075131;28;20029;-65
2023/03/17 00:13:29;;;;;;;7.40;4.00;;;5.80;82.20;;;;;;5074920;28;20025;-65
2023/03/17 00:15:59;;;;;;;8.23;4.22;;;5.80;81.80;;;;;;5075974;28;20016;-65
2023/03/17 00:18:25;;;;;;;7.30;4.03;;;5.70;83.90;;;;;;5076062;28;20108;-65
2023/03/17 00:20:51;;;;;;;8.93;4.43;;;5.50;85.10;;;;;;5075880;28;20024;-65
2023/03/17 00:23:22;;;;;;;5.68;3.67;;;5.30;85.90;;;;;;5074019;28;20107;-65
2023/03/17 00:25:48;;;;;;;7.88;4.35;;;5.10;86.30;;;;;;5071965;28;20303;-65
2023/03/17 00:28:17;;;;;;;6.85;3.72;;;5.00;86.40;;;;;;5093530;28;20072;-65
2023/03/17 00:30:43;;;;;;;7.28;4.22;;;4.90;86.90;;;;;;5085638;28;20077;-65
2023/03/17 00:33:10;;;;;;;6.25;3.88;;;4.80;87.30;;;;;;5072939;28;20032;-68
2023/03/17 00:35:37;;;;;;;6.78;3.72;;;4.70;87.80;;;;;;5070068;28;20025;-67
2023/03/17 00:38:02;;;;;;;8.05;4.70;;;4.60;88.60;;;;;;5075581;28;20321;-67
2023/03/17 00:40:29;;;;;;;7.53;4.22;;;4.50;89.00;;;;;;5066723;28;20025;-66
2023/03/17 00:42:56;;;;;;;7.85;4.18;;;4.60;89.20;;;;;;5072535;28;20020;-66
2023/03/17 00:45:24;;;;;;;9.20;4.63;;;4.60;89.30;;;;;;5059302;28;20524;-66
2023/03/17 00:47:52;;;;;;;6.65;3.92;;;4.60;88.50;;;;;;5091713;28;20038;-66
2023/03/17 00:50:23;;;;;;;7.38;3.75;;;4.60;88.60;;;;;;5086076;28;20028;-67
2023/03/17 00:52:51;;;;;;;6.35;3.75;;;4.60;88.50;;;;;;5079229;28;20103;-67
2023/03/17 00:55:19;;;;;;;6.35;3.50;;;4.70;87.40;;;;;;5072876;28;20024;-67
2023/03/17 00:57:47;;;;;;;5.53;3.08;;;4.80;86.60;;;;;;5068398;28;20036;-67
2023/03/17 01:00:35;;;;;;;8.57;5.25;;;4.90;85.60;;;;;;5074798;28;20485;-67
2023/03/17 01:03:01;;;;;;;7.53;4.63;;;4.80;89.40;;;;;;5079291;28;20421;-67
2023/03/17 01:05:27;;;;;;;7.82;4.80;;;4.70;89.80;;;;;;5081258;28;20028;-67
2023/03/17 01:07:56;;;;;;;9.98;5.15;;;4.50;89.90;;;;;;5073414;28;20029;-67
2023/03/17 01:10:25;;;;;;;8.23;5.25;;;4.40;90.40;;;;;;5081901;28;20325;-67
2023/03/17 01:12:52;;;;;;;11.02;4.82;;;4.40;90.70;;;;;;5084993;28;20028;-67
2023/03/17 01:15:20;;;;;;;9.05;4.50;;;4.30;91.00;;;;;;5079250;28;20079;-66
2023/03/17 01:17:46;;;;;;;9.40;4.63;;;4.30;90.90;;;;;;5062497;28;20120;-66
2023/03/17 01:20:18;;;;;;;10.15;4.45;;;4.30;91.10;;;;;;5097984;28;20107;-67
2023/03/17 01:22:44;;;;;;;6.63;3.72;;;4.30;90.90;;;;;;5094070;28;20031;-66
2023/03/17 01:25:10;;;;;;;7.55;3.95;;;4.50;90.30;;;;;;5064223;28;20024;-66
2023/03/17 01:27:37;;;;;;;6.95;3.45;;;4.70;89.50;;;;;;5096601;28;20028;-67
2023/03/17 01:30:04;;;;;;;8.32;3.33;;;4.80;88.40;;;;;;5061920;28;20025;-67
2023/03/17 01:32:30;;;;;;;6.55;3.35;;;4.90;86.70;;;;;;5082555;28;20029;-67
2023/03/17 01:34:56;;;;;;;5.68;3.17;;;5.30;83.90;;;;;;5065956;28;20464;-66
2023/03/17 01:37:22;;;;;;;6.10;3.10;;;5.70;82.50;;;;;;5077061;28;20028;-67
2023/03/17 01:39:48;;;;;;;6.05;3.00;;;6.00;81.40;;;;;;5076882;28;20028;-67
2023/03/17 01:42:13;;;;;;;7.63;3.72;;;6.30;79.70;;;;;;5094295;28;20149;-66
2023/03/17 01:45:00;;;;;;;5.32;2.97;;;6.50;79.50;;;;;;5075958;28;20028;-66
2023/03/17 01:47:29;;;;;;;6.90;2.92;;;6.60;77.80;;;;;;5067394;28;20035;-67
2023/03/17 01:49:56;;;;;;;4.70;2.78;;;6.70;76.80;;;;;;5068873;28;20107;-65
2023/03/17 01:52:22;;;;;;;6.38;3.20;;;6.70;76.80;;;;;;5076781;28;20081;-67
2023/03/17 01:54:57;;;;;;;5.63;3.03;;;6.80;76.40;;;;;;5074576;28;20063;-67
2023/03/17 01:57:43;;;;;;;4.82;2.40;;;6.90;76.40;;;;;;5077412;28;20032;-67
2023/03/17 02:00:13;;;;;;;4.93;2.30;;;7.00;75.10;;;;;;5078531;28;20037;-66
2023/03/17 02:02:41;;;;;;;4.75;2.55;;;7.10;75.30;;;;;;5078520;28;20027;-67
2023/03/17 02:05:10;;;;;;;5.45;2.85;;;7.00;75.50;;;;;;5044044;28;20064;-67
2023/03/17 02:07:37;;;;;;;5.32;2.80;;;6.90;76.80;;;;;;5062093;28;20111;-65
2023/03/17 02:10:04;;;;;;;6.38;2.75;;;6.70;77.20;;;;;;5074581;28;20025;-66
2023/03/17 02:12:30;;;;;;;5.45;2.95;;;6.60;78.70;;;;;;5066588;28;20074;-66
2023/03/17 02:14:56;;;;;;;5.32;3.20;;;6.60;79.60;;;;;;5075657;28;20024;-67
2023/03/17 02:17:24;;;;;;;7.00;3.33;;;6.50;80.00;;;;;;5063995;28;20052;-66
2023/03/17 02:19:50;;;;;;;9.38;2.90;;;6.50;80.30;;;;;;5084726;28;20460;-66
2023/03/17 02:22:17;;;;;;;5.05;3.00;;;6.30;80.40;;;;;;5077535;28;20024;-67
2023/03/17 02:24:50;;;;;;;6.35;2.90;;;6.30;81.10;;;;;;5069388;28;20027;-67
2023/03/17 02:27:32;;;;;;;6.22;2.63;;;6.30;80.40;;;;;;5085897;28;20409;-65
2023/03/17 02:29:58;;;;;;;4.97;2.63;;;6.20;80.10;;;;;;5092991;28;20055;-65
2023/03/17 02:32:24;;;;;;;7.35;2.97;;;6.10;80.10;;;;;;5068356;28;20032;-65
2023/03/17 02:34:50;;;;;;;6.35;3.00;;;6.20;80.40;;;;;;5096354;28;20097;-65
2023/03/17 02:37:17;;;;;;;7.10;3.20;;;6.20;81.30;;;;;;5088953;28;20025;-65
2023/03/17 02:39:43;;;;;;;8.13;2.97;;;6.00;82.70;;;;;;5079099;28;20446;-65
2023/03/17 02:42:09;;;;;;;6.18;3.33;;;5.90;83.40;;;;;;5076087;28;20033;-65
2023/03/17 02:44:35;;;;;;;6.57;3.35;;;5.70;84.10;;;;;;5093238;28;20016;-66
2023/03/17 02:47:02;;;;;;;6.60;3.70;;;5.60;84.60;;;;;;5091924;28;20086;-66
2023/03/17 02:49:29;;;;;;;5.45;3.30;;;5.50;85.70;;;;;;5079468;28;20036;-65
2023/03/17 02:51:55;;;;;;;7.18;3.75;;;5.60;84.20;;;;;;5074699;28;20051;-65
2023/03/17 02:54:20;;;;;;;6.07;3.88;;;5.60;85.40;;;;;;5081590;28;20414;-65
2023/03/17 02:56:46;;;;;;;6.47;4.05;;;5.50;85.80;;;;;;5061128;28;20374;-64
2023/03/17 02:59:11;;;;;;;8.77;3.42;;;5.40;85.60;;;;;;5087607;28;20024;-66
2023/03/17 03:01:40;;;;;;;6.65;3.88;;;5.40;85.80;;;;;;5079649;28;20506;-66
2023/03/17 03:04:06;;;;;;;6.15;3.50;;;5.40;85.50;;;;;;5069151;28;20020;-65
2023/03/17 03:06:32;;;;;;;5.53;3.53;;;5.40;85.80;;;;;;5090378;28;20308;-65
2023/03/17 03:08:58;;;;;;;7.45;3.90;;;5.40;85.90;;;;;;5094355;28;20028;-65
2023/03/17 03:11:24;;;;;;;6.90;3.63;;;5.40;86.10;;;;;;5090504;28;20116;-65
2023/03/17 03:13:49;;;;;;;6.82;4.47;;;5.30;85.80;;;;;;5074096;28;20115;-65
2023/03/17 03:16:15;;;;;;;6.47;3.63;;;5.30;86.50;;;;;;5082555;28;20435;-65
2023/03/17 03:18:41;;;;;;;6.00;3.35;;;5.20;87.00;;;;;;5086430;28;20371;-65
2023/03/17 03:21:06;;;;;;;8.95;3.55;;;5.10;87.00;;;;;;5077158;28;20603;-66
2023/03/17 03:23:33;;;;;;;7.95;4.20;;;5.00;87.90;;;;;;5059259;28;20035;-65
2023/03/17 03:25:58;;;;;;;6.10;3.50;;;5.00;87.30;;;;;;5055210;28;20024;-65
2023/03/17 03:28:24;;;;;;;8.20;4.03;;;5.10;87.60;;;;;;5086832;28;20044;-65
2023/03/17 03:30:53;;;;;;;9.55;4.60;;;5.10;88.30;;;;;;5069511;28;20060;-65
2023/03/17 03:33:19;;;;;;;8.43;3.83;;;5.00;88.70;;;;;;5078994;28;20103;-65
2023/03/17 03:35:47;;;;;;;6.65;3.95;;;5.10;87.90;;;;;;5069465;28;20063;-64
2023/03/17 03:38:13;;;;;;;7.07;4.18;;;5.20;86.50;;;;;;5070895;28;20081;-65
2023/03/17 03:40:38;;;;;;;6.97;3.65;;;5.20;87.20;;;;;;5078865;28;20314;-65
2023/03/17 03:43:07;;;;;;;8.57;4.65;;;5.00;86.80;;;;;;5086092;28;20024;-65
2023/03/17 03:45:33;;;;;;;6.03;4.03;;;4.80;87.80;;;;;;5079405;28;20028;-67
2023/03/17 03:47:58;;;;;;;9.48;4.43;;;4.70;88.20;;;;;;5046341;28;20414;-66
2023/03/17 03:50:24;;;;;;;7.40;4.32;;;4.50;88.90;;;;;;5064355;28;20032;-66
2023/03/17 03:52:50;;;;;;;8.52;4.80;;;4.40;89.50;;;;;;5064749;28;20130;-65
2023/03/17 03:55:19;;;;;;;7.10;4.00;;;4.30;89.50;;;;;;5061233;28;20325;-67
2023/03/17 03:57:44;;;;;;;7.10;3.78;;;4.30;89.50;;;;;;5064192;28;20032;-66
2023/03/17 04:00:13;;;;;;;7.55;3.95;;;4.30;89.90;;;;;;5065434;28;20044;-66
2023/03/17 04:02:40;;;;;;;6.47;4.13;;;4.20;90.00;;;;;;5063053;28;20025;-66
2023/03/17 04:05:06;;;;;;;7.03;4.60;;;4.10;90.00;;;;;;5064031;28;20028;-66
2023/03/17 04:07:32;;;;;;;6.38;4.03;;;4.10;90.90;;;;;;5065197;28;20017;-66
2023/03/17 04:09:58;;;;;;;8.45;3.75;;;4.20;90.70;;;;;;5074212;28;21421;-66
2023/03/17 04:12:24;;;;;;;5.88;3.22;;;4.30;88.70;;;;;;5069369;28;20027;-65
2023/03/17 04:14:50;;;;;;;5.63;3.20;;;4.70;85.70;;;;;;5073751;28;20028;-65
2023/03/17 04:17:16;;;;;;;5.68;3.15;;;5.00;84.40;;;;;;5074395;28;20028;-65
2023/03/17 04:19:41;;;;;;;6.57;3.17;;;5.20;83.60;;;;;;5075422;28;20028;-66
2023/03/17 04:22:09;;;;;;;8.20;3.45;;;5.40;82.90;;;;;;5075135;28;20024;-66
2023/03/17 04:24:35;;;;;;;6.25;3.28;;;5.30;83.90;;;;;;5055997;28;20028;-65
2023/03/17 04:27:01;;;;;;;5.63;2.97;;;5.30;84.20;;;;;;5071713;28;20383;-65
2023/03/17 04:29:26;;;;;;;6.45;3.28;;;5.30;84.00;;;;;;5074488;28;20033;-65
2023/03/17 04:31:52;;;;;;;6.30;3.10;;;5.50;82.90;;;;;;5078217;28;21562;-66
2023/03/17 04:34:18;;;;;;;6.65;3.28;;;5.60;82.40;;;;;;5079046;28;20035;-66
2023/03/17 04:36:45;;;;;;;5.85;3.50;;;5.60;82.30;;;;;;5071989;28;20024;-65
2023/03/17 04:39:11;;;;;;;6.10;3.42;;;5.70;82.50;;;;;;5076872;28;20028;-66
2023/03/17 04:41:37;;;;;;;5.65;3.10;;;5.70;82.40;;;;;;5062003;28;20078;-66
2023/03/17 04:44:03;;;;;;;5.57;3.10;;;5.60;82.60;;;;;;5065343;28;20044;-66
2023/03/17 04:46:28;;;;;;;6.00;3.10;;;5.60;82.40;;;;;;5070670;28;20033;-66
2023/03/17 04:48:55;;;;;;;7.45;3.80;;;5.50;83.00;;;;;;5077769;28;20024;-64
2023/03/17 04:51:20;;;;;;;6.18;3.33;;;5.40;84.20;;;;;;5078785;28;20036;-64
2023/03/17 04:53:46;;;;;;;6.82;3.60;;;5.30;84.90;;;;;;5070571;28;20378;-64
2023/03/17 04:56:12;;;;;;;6.00;3.47;;;5.20;85.20;;;;;;5072085;28;20597;-64
2023/03/17 04:58:38;;;;;;;6.82;3.83;;;5.10;85.00;;;;;;5070573;28;20031;-65
2023/03/17 05:01:04;;;;;;;8.27;3.78;;;5.10;85.40;;;;;;5074598;28;20044;-65
2023/03/17 05:03:33;;;;;;;8.27;3.75;;;5.00;85.70;;;;;;5072251;28;20068;-65
2023/03/17 05:06:00;;;;;;;6.78;3.80;;;4.80;86.60;;;;;;5070528;28;20425;-65
2023/03/17 05:08:27;;;;;;;5.38;3.08;;;4.50;87.40;;;;;;5079017;28;20390;-66
2023/03/17 05:10:56;;;;;;;5.75;3.35;;;4.40;88.30;;;;;;5074194;28;20035;-66
2023/03/17 05:13:23;;;;;;;7.32;3.70;;;4.20;88.60;;;;;;5070882;28;20105;-65
2023/03/17 05:15:50;;;;;;;7.53;3.58;;;4.20;88.60;;;;;;5075247;28;20032;-66
2023/03/17 05:18:17;;;;;;;8.38;3.60;;;4.20;88.30;;;;;;5073559;28;20046;-66
2023/03/17 05:20:43;;;;;;;6.80;3.47;;;4.30;88.00;;;;;;5065002;28;20108;-66
2023/03/17 05:23:08;;;;;;;6.40;3.78;;;4.60;87.00;;;;;;5073102;28;20103;-65
2023/03/17 05:25:34;;;;;;;8.60;3.92;;;4.80;86.10;;;;;;5069234;28;20112;-65
2023/03/17 05:28:00;;;;;;;6.90;3.60;;;4.90;85.30;;;;;;5063506;28;20086;-66
2023/03/17 05:30:26;;;;;;;5.45;3.05;;;4.90;85.90;;;;;;5060393;28;20036;-66
2023/03/17 05:32:51;;;;;;;6.45;3.55;;;5.00;85.10;;;;;;5067228;28;20021;-66
2023/03/17 05:35:17;;;;;;;5.82;2.88;;;5.20;84.10;;;;;;5074998;28;20306;-65
2023/03/17 05:37:43;;;;;;;5.47;3.10;;;5.30;82.80;;;;;;5075406;28;20437;-66
2023/03/17 05:40:11;;;;;;;5.25;2.80;;;5.40;82.10;;;;;;5075269;28;20017;-65
2023/03/17 05:42:37;;;;;;;5.13;3.33;;;5.60;81.70;;;;;;5052889;28;20420;-66
2023/03/17 05:45:04;;;;;;;6.65;3.90;;;5.60;82.90;;;;;;5065588;28;20024;-66
2023/03/17 05:47:31;;;;;;;5.78;3.72;;;5.30;84.10;;;;;;5074367;28;20024;-65
2023/03/17 05:49:57;;;;;;;8.30;3.80;;;5.10;84.90;;;;;;5077364;28;20092;-65
2023/03/17 05:52:22;;;;;;;7.68;4.53;;;4.90;85.50;;;;;;5067501;28;20151;-66
2023/03/17 05:54:48;;;;;;;10.70;4.40;;;4.80;86.10;;;;;;5068792;28;20021;-66
2023/03/17 05:57:15;;;;;;;9.00;4.18;;;4.70;86.90;;;;;;5076935;28;20060;-65
2023/03/17 05:59:41;;;;;;;7.00;4.00;;;4.50;87.60;;;;;;5083036;28;20024;-65
2023/03/17 06:02:07;;;;;;;8.15;4.50;;;4.30;88.50;;;;;;5068103;28;20028;-65
2023/03/17 06:04:34;;;;;;;8.90;4.45;;;4.30;89.10;;;;;;5070951;28;20021;-66
2023/03/17 06:06:59;;;;;;;6.95;4.00;;;4.20;88.80;;;;;;5076321;28;20110;-65
2023/03/17 06:09:26;;;;;;;6.40;4.32;;;4.20;89.30;;;;;;5077651;28;20378;-66
2023/03/17 06:11:52;;;;;;;9.43;4.75;;;4.10;89.90;;;;;;5075527;28;20120;-66
2023/03/17 06:14:18;;;;;;;8.75;5.03;;;4.10;89.90;;;;;;5071824;28;20159;-66
2023/03/17 06:16:44;;;;;;;13.32;5.72;;;4.20;89.60;;;;;;5075824;28;20024;-65
2023/03/17 06:19:09;;;;;;;9.65;5.38;;;4.10;90.00;;;;;;5077429;28;20039;-65
2023/03/17 06:21:35;;;;;;;8.18;4.80;;;4.10;89.80;;;;;;5077084;28;20048;-66
2023/03/17 06:24:01;;;;;;;8.60;4.78;;;4.10;88.90;;;;;;5075814;28;20036;-66
2023/03/17 06:26:27;;;;;;;10.43;5.45;;;4.20;89.30;;;;;;5077610;28;20377;-66
2023/03/17 06:28:52;;;;;;;10.68;6.10;;;4.30;89.70;;;;;;5076469;28;20108;-66
2023/03/17 06:31:18;;;;;;;9.35;5.57;;;4.30;90.00;;;;;;5075190;28;20067;-65
2023/03/17 06:33:43;;;;;;;7.70;4.68;;;4.40;89.40;;;;;;5067793;28;20024;-65
2023/03/17 06:36:09;;;;;;;8.45;4.68;;;4.70;89.00;;;;;;5078260;28;20064;-64
2023/03/17 06:38:35;;;;;;;10.35;4.90;;;4.90;88.10;;;;;;5066036;28;20396;-66
2023/03/17 06:41:00;;;;;;;7.57;4.68;;;4.90;87.80;;;;;;5064356;28;20032;-66
2023/03/17 06:43:26;;;;;;;9.32;4.60;;;5.00;87.70;;;;;;5069298;28;20024;-66
2023/03/17 06:45:52;;;;;;;17.67;8.02;;;5.10;87.30;;;;;;5077630;28;20326;-66
2023/03/17 06:48:18;;;;;;;12.55;6.57;;;5.40;84.50;;;;;;5077448;28;20063;-66
2023/03/17 06:50:46;;;;;;;18.92;7.82;;;5.80;84.90;;;;;;5077983;28;20032;-66
2023/03/17 06:53:12;;;;;;;14.20;6.45;;;6.10;84.50;;;;;;5077891;28;20086;-66
2023/03/17 06:55:38;;;;;;;16.13;8.27;;;6.40;83.90;;;;;;5064305;28;20029;-66
2023/03/17 06:58:03;;;;;;;14.10;6.97;;;6.70;82.80;;;;;;5056125;28;20025;-66
2023/03/17 07:00:29;;;;;;;17.00;8.95;;;7.00;81.80;;;;;;5075416;28;20053;-67
2023/03/17 07:02:56;;;;;;;13.70;7.20;;;7.30;81.00;;;;;;5077772;28;20031;-66
2023/03/17 07:05:25;;;;;;;15.70;6.82;;;7.60;79.30;;;;;;5077332;28;20135;-66
2023/03/17 07:07:51;;;;;;;9.05;5.10;;;7.90;79.00;;;;;;5077654;28;20032;-66
2023/03/17 07:10:17;;;;;;;10.00;4.63;;;8.20;78.60;;;;;;5075598;28;20032;-67
2023/03/17 07:12:44;;;;;;;5.70;3.10;;;8.30;79.40;;;;;;5075243;28;20028;-66
2023/03/17 07:15:11;;;;;;;5.63;2.97;;;8.40;79.00;;;;;;5073534;28;20036;-67
2023/03/17 07:17:37;;;;;;;6.10;3.33;;;8.50;79.30;;;;;;5073895;28;20298;-66
2023/03/17 07:20:05;;;;;;;8.80;4.10;;;8.70;79.40;;;;;;5077527;28;20428;-66
2023/03/17 07:22:31;;;;;;;17.33;8.23;;;8.80;79.60;;;;;;5077422;28;20032;-67
2023/03/17 07:24:56;;;;;;;14.57;7.43;;;9.00;78.10;;;;;;5077033;28;20308;-66
2023/03/17 07:27:25;;;;;;;18.92;8.48;;;9.00;78.10;;;;;;5076156;28;20095;-66
2023/03/17 07:29:51;;;;;;;15.10;6.85;;;9.00;78.50;;;;;;5074399;28;20028;-66
2023/03/17 07:32:20;;;;;;;20.17;9.18;;;9.10;78.40;;;;;;5075950;28;20025;-66
2023/03/17 07:34:45;;;;;;;16.95;8.77;;;9.20;78.30;;;;;;5077004;28;20051;-66
2023/03/17 07:37:11;;;;;;;14.98;8.13;;;9.20;78.00;;;;;;5059224;28;20051;-66
2023/03/17 07:39:37;;;;;;;14.38;7.50;;;9.30;78.10;;;;;;5077125;28;20421;-66
2023/03/17 07:42:03;;;;;;;15.77;8.00;;;9.40;78.00;;;;;;5075756;28;20026;-66
2023/03/17 07:44:30;;;;;;;35.15;17.23;;;9.60;77.40;;;;;;5072458;28;20115;-66
2023/03/17 07:46:55;;;;;;;22.92;10.55;;;9.70;77.00;;;;;;5068371;28;20023;-66
2023/03/17 07:49:21;;;;;;;18.13;8.15;;;9.80;77.00;;;;;;5074941;28;20032;-66
2023/03/17 07:51:46;;;;;;;15.65;8.10;;;10.00;76.40;;;;;;5067889;28;20029;-66
2023/03/17 07:54:13;;;;;;;13.57;8.07;;;10.30;75.60;;;;;;5069615;28;20115;-66
2023/03/17 07:56:39;;;;;;;11.45;6.13;;;10.70;75.00;;;;;;5073429;28;20021;-66
2023/03/17 07:59:07;;;;;;;11.18;5.85;;;10.90;75.40;;;;;;5073181;28;20081;-66
2023/03/17 08:01:33;;;;;;;13.48;5.50;;;11.20;74.60;;;;;;5074357;28;20059;-66
2023/03/17 08:03:59;;;;;;;16.05;5.65;;;11.40;73.90;;;;;;5067209;28;20032;-66
2023/03/17 08:06:25;;;;;;;8.32;4.35;;;11.60;73.60;;;;;;5073393;28;20079;-66
2023/03/17 08:08:52;;;;;;;9.07;4.70;;;11.60;73.60;;;;;;5074656;28;20368;-66
2023/03/17 08:11:18;;;;;;;7.82;4.45;;;11.80;73.30;;;;;;5076239;28;20028;-66
2023/03/17 08:13:45;;;;;;;7.43;3.50;;;11.90;72.50;;;;;;5074368;28;20035;-66
2023/03/17 08:16:11;;;;;;;7.90;3.53;;;11.90;72.20;;;;;;5076267;28;20063;-66
2023/03/17 08:18:37;;;;;;;7.45;4.40;;;12.00;71.70;;;;;;5076239;28;20024;-66
2023/03/17 08:21:04;;;;;;;7.50;4.40;;;12.20;71.10;;;;;;5076354;28;20440;-66
2023/03/17 08:23:29;;;;;;;10.05;4.22;;;12.40;71.10;;;;;;5072999;28;20052;-66
2023/03/17 08:25:56;;;;;;;10.50;4.55;;;12.80;70.30;;;;;;5076320;28;20377;-67
2023/03/17 08:28:22;;;;;;;8.15;4.07;;;13.20;70.00;;;;;;5074944;28;20035;-66
2023/03/17 08:30:49;;;;;;;9.68;5.05;;;13.90;68.50;;;;;;5076186;28;20025;-66
2023/03/17 08:33:15;;;;;;;9.93;5.18;;;14.70;66.10;;;;;;5075917;28;20321;-66
2023/03/17 08:35:41;;;;;;;8.30;4.10;;;15.00;65.40;;;;;;5074762;28;20035;-66
2023/03/17 08:38:07;;;;;;;9.43;5.18;;;15.50;65.40;;;;;;5076076;28;20024;-66
2023/03/17 08:40:33;;;;;;;8.38;5.32;;;15.80;63.60;;;;;;5076139;28;20036;-67
2023/03/17 08:42:59;;;;;;;7.82;4.53;;;15.40;64.20;;;;;;5074526;28;20096;-66
2023/03/17 08:45:25;;;;;;;7.40;4.15;;;15.20;64.40;;;;;;5076051;28;20477;-66
2023/03/17 08:47:53;;;;;;;8.68;3.67;;;14.80;66.10;;;;;;5075958;28;20321;-66
2023/03/17 08:50:22;;;;;;;7.22;3.90;;;14.30;67.70;;;;;;5074341;28;20028;-66
2023/03/17 08:52:48;;;;;;;7.63;4.53;;;13.90;69.40;;;;;;5075845;28;20029;-67
2023/03/17 08:55:15;;;;;;;8.77;3.90;;;14.30;69.50;;;;;;5075823;28;20024;-66
2023/03/17 08:57:41;;;;;;;7.63;3.53;;;14.30;69.70;;;;;;5054550;28;20124;-66
2023/03/17 09:00:10;;;;;;;8.00;3.92;;;14.30;69.50;;;;;;5055710;28;20045;-66
2023/03/17 09:02:41;;;;;;;6.50;3.30;;;14.60;68.40;;;;;;5059335;28;20012;-66
2023/03/17 09:05:09;;;;;;;8.65;2.97;;;14.70;68.60;;;;;;5074647;28;20033;-66
2023/03/17 09:07:35;;;;;;;6.18;3.10;;;15.30;68.00;;;;;;5075835;28;20322;-66
2023/03/17 09:10:03;;;;;;;6.78;2.97;;;15.70;67.00;;;;;;5075557;28;20031;-66
2023/03/17 09:12:29;;;;;;;5.68;3.00;;;16.00;66.40;;;;;;5074457;28;20025;-66
2023/03/17 09:14:56;;;;;;;8.00;3.70;;;16.20;66.10;;;;;;5075480;28;20317;-67
2023/03/17 09:17:22;;;;;;;6.82;2.85;;;17.00;64.30;;;;;;5075559;28;20051;-66
2023/03/17 09:19:48;;;;;;;7.78;2.90;;;17.70;62.30;;;;;;5074605;28;20025;-66
2023/03/17 09:22:17;;;;;;;5.85;3.03;;;18.40;61.10;;;;;;5055947;28;20060;-66
2023/03/17 09:24:46;;;;;;;6.47;2.60;;;19.50;59.20;;;;;;5074696;28;20025;-65
2023/03/17 09:27:12;;;;;;;7.90;2.53;;;20.50;56.60;;;;;;5078561;28;20032;-65
2023/03/17 09:29:37;;;;;;;8.15;2.50;;;21.20;56.10;;;;;;5079637;28;20025;-65
2023/03/17 09:32:03;;;;;;;6.43;3.30;;;20.80;55.60;;;;;;5078389;28;20031;-65
2023/03/17 09:34:29;;;;;;;6.07;2.63;;;20.00;56.80;;;;;;5079194;28;20028;-64
2023/03/17 09:37:00;;;;;;;9.98;2.67;;;20.20;56.60;;;;;;5079514;28;20025;-66
2023/03/17 09:39:26;;;;;;;6.88;2.30;;;20.30;56.00;;;;;;5079351;28;20111;-67
2023/03/17 09:42:33;;;;;;;6.25;2.30;;;20.60;57.30;;;;;;5078248;28;20406;-67
2023/03/17 09:45:17;;;;;;;5.68;2.80;;;21.20;54.30;;;;;;5031827;28;20045;-66
2023/03/17 09:48:17;;;;;;;5.30;2.17;;;20.40;54.60;;;;;;5060114;28;20390;-66
2023/03/17 09:50:59;;;;;;;6.40;2.60;;;19.60;55.90;;;;;;5064103;28;20029;-66
2023/03/17 09:53:32;;;;;;;5.57;2.50;;;19.30;56.80;;;;;;5064818;28;20032;-66
2023/03/17 09:56:04;;;;;;;5.60;2.55;;;19.20;57.50;;;;;;5078915;28;20044;-66
2023/03/17 09:58:35;;;;;;;6.82;2.50;;;19.20;57.00;;;;;;5077740;28;20090;-66
2023/03/17 10:01:04;;;;;;;7.03;2.97;;;18.00;58.30;;;;;;5078901;28;20521;-66
2023/03/17 10:03:31;;;;;;;7.30;3.00;;;17.60;60.90;;;;;;5070761;28;20028;-65
2023/03/17 10:06:34;;;;;;;6.25;2.97;;;17.70;61.30;;;;;;5079031;28;20425;-66
2023/03/17 10:09:21;;;;;;;8.07;2.65;;;18.60;60.60;;;;;;5078817;28;20029;-66
2023/03/17 10:12:03;;;;;;;7.55;2.45;;;19.50;59.50;;;;;;5077730;28;20031;-66
2023/03/17 10:14:51;;;;;;;6.25;2.72;;;20.00;57.60;;;;;;5078553;28;20036;-67
2023/03/17 10:17:29;;;;;;;7.78;2.55;;;20.00;57.40;;;;;;5072558;28;20021;-66
2023/03/17 10:20:00;;;;;;;6.18;2.10;;;20.00;58.70;;;;;;5058651;28;20025;-66
2023/03/17 10:22:41;;;;;;;6.47;2.10;;;20.80;55.80;;;;;;5058681;28;20021;-66
2023/03/17 10:25:22;;;;;;;5.25;2.20;;;20.50;56.10;;;;;;5077813;28;20087;-66
2023/03/17 10:28:01;;;;;;;5.20;2.25;;;20.90;56.40;;;;;;5076895;28;20039;-66
2023/03/17 10:30:29;;;;;;;4.75;2.40;;;20.80;55.70;;;;;;5078470;28;20025;-66
2023/03/17 10:32:58;;;;;;;6.50;2.42;;;20.70;55.40;;;;;;5077122;28;20035;-66
2023/03/17 10:35:24;;;;;;;5.80;1.90;;;20.60;56.80;;;;;;5077701;28;20058;-66
2023/03/17 10:37:49;;;;;;;5.85;1.80;;;21.20;55.60;;;;;;5078042;28;20029;-66
2023/03/17 10:40:25;;;;;;;4.95;2.08;;;21.40;55.50;;;;;;5078213;28;20048;-66
2023/03/17 10:43:07;;;;;;;6.28;2.25;;;21.80;55.10;;;;;;5076894;28;20071;-66
2023/03/17 10:45:39;;;;;;;7.20;2.72;;;21.90;54.60;;;;;;5078236;28;20055;-66
2023/03/17 10:48:09;;;;;;;6.45;2.20;;;21.80;55.10;;;;;;5075895;28;20376;-66
2023/03/17 10:50:36;;;;;;;7.13;2.50;;;22.00;55.60;;;;;;5078041;28;20116;-66
2023/03/17 10:53:07;;;;;;;7.72;2.00;;;22.10;55.70;;;;;;5078082;28;20021;-66
2023/03/17 10:55:47;;;;;;;6.13;1.98;;;22.00;56.40;;;;;;5078112;28;20035;-66
2023/03/17 10:58:22;;;;;;;7.13;2.33;;;22.60;56.10;;;;;;5076535;28;20064;-66
2023/03/17 11:01:07;;;;;;;4.65;2.00;;;23.40;55.20;;;;;;5077712;28;20098;-66
2023/03/17 11:03:37;;;;;;;4.80;1.60;;;24.00;52.80;;;;;;5057978;28;20302;-66
2023/03/17 11:06:07;;;;;;;4.85;1.98;;;24.20;51.70;;;;;;5059141;28;20021;-66
2023/03/17 11:08:37;;;;;;;7.18;1.80;;;23.50;51.60;;;;;;5057713;28;20036;-66
2023/03/17 11:11:19;;;;;;;3.67;1.60;;;22.90;52.10;;;;;;5057755;28;20334;-65
2023/03/17 11:13:45;;;;;;;7.07;2.20;;;22.10;53.90;;;;;;5060779;28;20499;-65
2023/03/17 11:16:23;;;;;;;6.85;2.45;;;22.20;54.90;;;;;;5077322;28;20024;-65
2023/03/17 11:18:55;;;;;;;5.45;2.20;;;22.40;56.10;;;;;;5077538;28;20309;-65
2023/03/17 11:21:25;;;;;;;8.00;2.28;;;22.50;54.30;;;;;;5076063;28;20038;-65
2023/03/17 11:24:07;;;;;;;5.55;1.92;;;22.80;54.00;;;;;;5057946;28;20021;-65
2023/03/17 11:27:10;;;;;;;7.60;2.17;;;23.00;52.60;;;;;;5074973;28;20112;-64
2023/03/17 11:29:53;;;;;;;4.38;1.98;;;23.30;54.30;;;;;;5077414;28;20070;-65
2023/03/17 11:32:26;;;;;;;7.03;2.13;;;23.70;54.00;;;;;;5077397;28;20098;-65
2023/03/17 11:34:55;;;;;;;5.15;2.33;;;24.00;53.60;;;;;;5076868;28;20021;-65
2023/03/17 11:37:55;;;;;;;4.10;1.95;;;23.80;54.50;;;;;;5077116;28;20028;-65
2023/03/17 11:40:33;;;;;;;3.95;1.77;;;23.60;52.80;;;;;;5056216;28;20091;-65
2023/03/17 11:43:37;;;;;;;6.60;1.98;;;23.20;54.10;;;;;;5067548;28;20194;-65
2023/03/17 11:46:11;;;;;;;5.37;2.13;;;22.60;56.40;;;;;;5076821;28;20016;-65
2023/03/17 11:49:05;;;;;;;5.97;2.00;;;22.80;55.20;;;;;;5074857;28;20476;-65
2023/03/17 11:52:02;;;;;;;16.95;14.70;;;23.00;56.10;;;;;;5076889;28;20032;-66
2023/03/17 11:54:37;;;;;;;5.43;1.92;;;22.80;55.50;;;;;;5076580;28;20394;-65
2023/03/17 11:57:09;;;;;;;3.92;1.83;;;22.30;56.00;;;;;;5075489;28;20032;-65
2023/03/17 11:59:46;;;;;;;5.00;2.20;;;22.00;56.10;;;;;;5076554;28;20025;-66
2023/03/17 12:02:29;;;;;;;3.70;1.73;;;22.30;56.20;;;;;;5076476;28;20025;-66
2023/03/17 12:05:12;;;;;;;5.35;1.55;;;22.80;54.70;;;;;;5071300;28;20032;-66
2023/03/17 12:07:40;;;;;;;3.33;1.40;;;23.20;54.40;;;;;;5056745;28;20029;-65
2023/03/17 12:10:12;;;;;;;2.95;1.20;;;23.60;52.80;;;;;;5056665;28;20025;-66
2023/03/17 12:12:45;;;;;;;3.85;1.48;;;24.00;48.80;;;;;;5058133;28;20024;-65
2023/03/17 12:15:21;;;;;;;5.93;1.90;;;24.10;50.60;;;;;;5076514;28;20455;-65
2023/03/17 12:18:30;;;;;;;5.15;1.70;;;24.40;51.40;;;;;;5073907;28;20496;-65
2023/03/17 12:21:00;;;;;;;3.55;1.60;;;23.90;53.80;;;;;;5047363;28;20029;-63
2023/03/17 12:23:32;;;;;;;6.25;1.70;;;24.20;52.90;;;;;;5065412;28;20381;-64
2023/03/17 12:26:05;;;;;;;3.60;1.50;;;24.40;52.20;;;;;;5076404;28;20033;-63
2023/03/17 12:28:37;;;;;;;5.68;2.28;;;24.30;52.20;;;;;;5075074;28;20059;-63
2023/03/17 12:31:11;;;;;;;3.92;1.60;;;24.10;52.30;;;;;;5076229;28;20037;-65
2023/03/17 12:33:47;;;;;;;5.07;1.90;;;23.20;53.30;;;;;;5076140;28;20360;-65
2023/03/17 12:36:15;;;;;;;5.70;1.80;;;22.70;54.10;;;;;;5059859;28;20036;-65
2023/03/17 12:38:56;;;;;;;4.68;1.80;;;22.00;54.10;;;;;;5063986;28;20108;-65
2023/03/17 12:41:40;;;;;;;4.30;1.80;;;21.80;55.60;;;;;;5070375;28;20048;-64
2023/03/17 12:44:19;;;;;;;5.07;1.80;;;21.70;54.80;;;;;;5070544;28;20057;-65
2023/03/17 12:47:09;;;;;;;4.68;1.80;;;21.60;55.50;;;;;;5076121;28;20117;-65
2023/03/17 12:49:53;;;;;;;5.55;1.60;;;21.70;54.80;;;;;;5076008;28;20021;-65
2023/03/17 12:52:56;;;;;;;5.00;1.77;;;22.10;55.40;;;;;;5075882;28;20418;-64
2023/03/17 12:55:25;;;;;;;4.38;1.80;;;22.20;53.80;;;;;;5055791;28;20033;-64
2023/03/17 12:58:02;;;;;;;3.47;1.70;;;22.30;55.70;;;;;;5054884;28;20086;-65
2023/03/17 13:00:30;;;;;;;6.38;1.70;;;22.60;54.90;;;;;;5061229;28;20083;-65
2023/03/17 13:03:29;;;;;;;3.78;1.75;;;22.10;55.20;;;;;;5075662;28;20409;-64
2023/03/17 13:06:00;;;;;;;4.80;1.60;;;22.00;54.90;;;;;;5065575;28;20090;-64